createdAt,value
2023-01-05T00:01:25.838Z,15.02
2023-01-05T00:03:53.091Z,12.48
2023-01-05T00:06:20.559Z,15.50
2023-01-05T00:08:48.239Z,17.65
2023-01-05T00:11:39.655Z,19.25
2023-01-05T00:14:32.905Z,23.75
2023-01-05T00:17:19.263Z,28.75
2023-01-05T00:20:05.604Z,24.92
2023-01-05T00:22:39.257Z,30.42
2023-01-05T00:25:18.677Z,21.63
2023-01-05T00:27:50.628Z,24.77
2023-01-05T00:30:32.479Z,25.13
2023-01-05T00:32:59.884Z,20.42
2023-01-05T00:35:28.824Z,15.82
2023-01-05T00:37:56.093Z,20.73
2023-01-05T00:40:23.734Z,27.17
2023-01-05T00:42:51.109Z,23.17
2023-01-05T00:45:19.661Z,28.45
2023-01-05T00:47:49.123Z,17.73
2023-01-05T00:50:18.545Z,24.80
2023-01-05T00:52:46.947Z,28.15
2023-01-05T00:55:14.815Z,18.55
2023-01-05T00:57:42.401Z,15.40
2023-01-05T01:00:15.421Z,21.25
2023-01-05T01:02:43.123Z,18.05
2023-01-05T01:05:10.966Z,27.40
2023-01-05T01:07:38.372Z,17.42
2023-01-05T01:10:07.090Z,22.23
2023-01-05T01:12:34.924Z,25.75
2023-01-05T01:15:02.595Z,24.13
2023-01-05T01:17:32.323Z,22.70
2023-01-05T01:19:59.682Z,26.90
2023-01-05T01:22:26.973Z,19.77
2023-01-05T01:24:54.702Z,18.33
2023-01-05T01:27:22.076Z,27.98
2023-01-05T01:29:49.428Z,20.45
2023-01-05T01:32:16.764Z,20.00
2023-01-05T01:34:45.183Z,23.65
2023-01-05T01:37:13.259Z,24.42
2023-01-05T01:39:46.177Z,24.30
2023-01-05T01:42:16.349Z,17.17
2023-01-05T01:45:37.731Z,34.03
2023-01-05T01:48:06.127Z,26.17
2023-01-05T01:50:41.586Z,18.35
2023-01-05T01:53:14.874Z,23.95
2023-01-05T01:55:43.111Z,24.60
2023-01-05T01:58:16.624Z,26.15
2023-01-05T02:00:46.585Z,15.52
2023-01-05T02:03:15.037Z,21.60
2023-01-05T02:05:42.399Z,27.02
2023-01-05T02:08:13.167Z,24.25
2023-01-05T02:11:12.516Z,18.92
2023-01-05T02:13:45.401Z,20.67
2023-01-05T02:16:35.560Z,25.15
2023-01-05T02:19:22.621Z,14.03
2023-01-05T02:22:23.641Z,23.58
2023-01-05T02:27:38.824Z,15.98
2023-01-05T02:30:27.758Z,19.35
2023-01-05T02:33:22.955Z,24.23
2023-01-05T02:36:13.605Z,24.52
2023-01-05T02:38:46.563Z,21.20
2023-01-05T02:41:34.959Z,21.60
2023-01-05T02:44:04.100Z,22.40
2023-01-05T02:46:31.441Z,19.42
2023-01-05T02:49:00.297Z,21.63
2023-01-05T02:51:36.800Z,22.10
2023-01-05T02:54:38.371Z,16.98
2023-01-05T02:57:18.202Z,21.48
2023-01-05T02:59:53.873Z,15.15
2023-01-05T03:02:31.388Z,19.20
2023-01-05T03:05:10.641Z,21.60
2023-01-05T03:07:40.714Z,25.30
2023-01-05T03:10:32.772Z,25.38
2023-01-05T03:13:26.284Z,21.67
2023-01-05T03:16:02.097Z,25.25
2023-01-05T03:18:54.446Z,23.80
2023-01-05T03:21:24.000Z,25.55
2023-01-05T03:24:10.571Z,17.02
2023-01-05T03:26:58.860Z,26.08
2023-01-05T03:29:46.209Z,23.80
2023-01-05T03:32:44.558Z,19.48
2023-01-05T03:35:31.908Z,19.10
2023-01-05T03:38:14.740Z,22.77
2023-01-05T03:40:46.397Z,25.88
2023-01-05T03:43:14.778Z,27.02
2023-01-05T03:45:46.284Z,20.73
2023-01-05T03:48:22.113Z,14.10
2023-01-05T03:50:49.913Z,24.23
2023-01-05T03:53:19.745Z,24.13
2023-01-05T03:55:47.301Z,23.02
2023-01-05T03:58:14.947Z,20.48
2023-01-05T04:00:47.021Z,28.20
2023-01-05T04:03:17.155Z,22.92
2023-01-05T04:05:44.620Z,22.08
2023-01-05T04:08:12.965Z,23.52
2023-01-05T04:10:40.304Z,20.17
2023-01-05T04:13:09.045Z,29.10
2023-01-05T04:15:37.032Z,20.65
2023-01-05T04:18:06.267Z,22.75
2023-01-05T04:20:33.726Z,23.52
2023-01-05T04:23:01.917Z,19.88
2023-01-05T04:25:30.743Z,26.08
2023-01-05T04:28:10.944Z,23.08
2023-01-05T04:30:38.991Z,17.85
2023-01-05T04:33:06.513Z,29.25
2023-01-05T04:35:34.437Z,28.08
2023-01-05T04:38:01.726Z,24.45
2023-01-05T04:40:29.471Z,29.13
2023-01-05T04:42:57.063Z,23.90
2023-01-05T04:45:25.527Z,24.80
2023-01-05T04:47:52.894Z,21.70
2023-01-05T04:50:23.609Z,24.50
2023-01-05T04:52:51.166Z,30.92
2023-01-05T04:55:21.350Z,23.17
2023-01-05T04:57:48.763Z,18.48
2023-01-05T05:00:18.926Z,25.75
2023-01-05T05:02:48.194Z,20.98
2023-01-05T05:05:16.469Z,19.45
2023-01-05T05:07:43.814Z,21.98
2023-01-05T05:10:13.078Z,20.65
2023-01-05T05:12:42.626Z,23.97
2023-01-05T05:15:11.914Z,27.02
2023-01-05T05:17:43.988Z,31.15
2023-01-05T05:20:13.786Z,27.65
2023-01-05T05:22:41.920Z,20.38
2023-01-05T05:25:11.678Z,20.45
2023-01-05T05:27:43.596Z,33.75
2023-01-05T05:30:11.216Z,30.58
2023-01-05T05:32:44.002Z,30.63
2023-01-05T05:35:12.131Z,23.27
2023-01-05T05:37:39.444Z,22.20
2023-01-05T05:40:07.231Z,26.70
2023-01-05T05:42:34.605Z,28.70
2023-01-05T05:45:01.824Z,19.52
2023-01-05T05:47:29.386Z,22.73
2023-01-05T05:49:56.696Z,24.63
2023-01-05T05:52:24.003Z,26.83
2023-01-05T05:54:51.443Z,22.40
2023-01-05T05:57:18.789Z,27.13
2023-01-05T05:59:46.171Z,22.05
2023-01-05T06:02:13.767Z,30.83
2023-01-05T06:04:41.233Z,22.15
2023-01-05T06:07:08.483Z,28.30
2023-01-05T06:09:36.122Z,28.15
2023-01-05T06:12:03.826Z,25.55
2023-01-05T06:14:32.633Z,36.55
2023-01-05T06:17:01.147Z,22.20
2023-01-05T06:19:28.361Z,25.75
2023-01-05T06:21:55.638Z,22.70
2023-01-05T06:24:24.210Z,31.05
2023-01-05T06:26:51.442Z,24.95
2023-01-05T06:29:18.981Z,23.77
2023-01-05T06:31:46.814Z,19.70
2023-01-05T06:34:14.173Z,28.42
2023-01-05T06:36:41.483Z,26.38
2023-01-05T06:39:08.751Z,31.63
2023-01-05T06:41:36.070Z,23.20
2023-01-05T06:44:03.505Z,28.85
2023-01-05T06:46:31.395Z,20.27
2023-01-05T06:48:58.947Z,35.47
2023-01-05T06:51:26.170Z,28.38
2023-01-05T06:53:53.514Z,22.23
2023-01-05T06:56:20.815Z,24.38
2023-01-05T06:58:48.244Z,22.52
2023-01-05T07:01:15.647Z,25.92
2023-01-05T07:03:43.145Z,31.90
2023-01-05T07:06:15.104Z,36.72
2023-01-05T07:08:43.253Z,27.83
2023-01-05T07:11:10.676Z,32.15
2023-01-05T07:13:37.907Z,30.20
2023-01-05T07:16:05.682Z,21.10
2023-01-05T07:18:33.272Z,31.90
2023-01-05T07:21:00.832Z,25.52
2023-01-05T07:23:29.045Z,25.83
2023-01-05T07:26:01.308Z,18.65
2023-01-05T07:28:28.684Z,24.52
2023-01-05T07:30:56.184Z,19.17
2023-01-05T07:33:23.522Z,26.25
2023-01-05T07:35:51.065Z,23.92
2023-01-05T07:38:18.364Z,30.92
2023-01-05T07:40:45.762Z,22.73
2023-01-05T07:43:13.615Z,24.95
2023-01-05T07:45:40.930Z,24.35
2023-01-05T07:48:08.410Z,25.38
2023-01-05T07:50:35.930Z,22.08
2023-01-05T07:53:03.215Z,20.08
2023-01-05T07:55:30.874Z,16.00
2023-01-05T07:57:58.303Z,15.88
2023-01-05T08:00:25.814Z,20.95
2023-01-05T08:02:53.251Z,11.40
2023-01-05T08:05:20.539Z,8.48
2023-01-05T08:07:47.828Z,12.13
2023-01-05T08:10:30.466Z,9.52
2023-01-05T08:13:20.953Z,2.00
2023-01-05T08:15:51.369Z,2.38
2023-01-05T08:20:58.173Z,5.97
2023-01-05T08:23:27.569Z,6.32
2023-01-05T08:25:55.644Z,4.32
2023-01-05T08:28:31.395Z,10.45
2023-01-05T08:31:07.514Z,5.30
2023-01-05T08:33:35.053Z,8.85
2023-01-05T08:36:07.267Z,6.32
2023-01-05T08:38:34.642Z,8.63
2023-01-05T08:41:01.923Z,7.90
2023-01-05T08:43:29.431Z,10.13
2023-01-05T08:45:57.053Z,8.90
2023-01-05T08:48:24.361Z,9.48
2023-01-05T08:50:51.653Z,12.52
2023-01-05T08:53:19.016Z,17.70
2023-01-05T08:55:46.429Z,15.70
2023-01-05T08:58:13.821Z,5.72
2023-01-05T09:00:41.029Z,6.82
2023-01-05T09:03:09.630Z,9.98
2023-01-05T09:05:37.004Z,12.82
2023-01-05T09:08:05.234Z,9.13
2023-01-05T09:10:32.969Z,11.38
2023-01-05T09:13:00.196Z,24.45
2023-01-05T09:15:27.453Z,18.92
2023-01-05T09:17:54.777Z,23.67
2023-01-05T09:20:22.056Z,20.38
2023-01-05T09:22:49.263Z,19.98
2023-01-05T09:25:16.705Z,22.20
2023-01-05T09:27:44.034Z,28.30
2023-01-05T09:30:12.276Z,24.95
2023-01-05T09:32:40.303Z,23.60
2023-01-05T09:35:09.364Z,16.40
2023-01-05T09:37:36.668Z,17.73
2023-01-05T09:40:04.307Z,18.73
2023-01-05T09:42:34.020Z,24.35
2023-01-05T09:45:06.196Z,19.08
2023-01-05T09:47:39.949Z,14.75
2023-01-05T09:50:17.154Z,19.55
2023-01-05T09:52:44.660Z,18.80
2023-01-05T09:55:17.551Z,15.52
2023-01-05T09:58:01.944Z,19.23
2023-01-05T10:00:29.837Z,10.13
2023-01-05T10:03:37.017Z,14.77
2023-01-05T10:06:03.276Z,9.60
2023-01-05T10:08:41.295Z,15.18
2023-01-05T10:11:40.809Z,17.73
2023-01-05T10:14:13.812Z,13.77
2023-01-05T10:16:45.177Z,12.77
2023-01-05T10:19:18.658Z,8.88
2023-01-05T10:22:09.228Z,10.75
2023-01-05T10:24:59.273Z,10.50
2023-01-05T10:27:45.024Z,10.40
2023-01-05T10:30:27.680Z,9.02
2023-01-05T10:33:35.723Z,10.65
2023-01-05T10:36:13.205Z,10.75
2023-01-05T10:39:20.877Z,10.90
2023-01-05T10:41:48.149Z,12.15
2023-01-05T10:44:27.413Z,14.60
2023-01-05T10:46:55.016Z,10.75
2023-01-05T10:49:28.474Z,11.77
2023-01-05T10:52:01.293Z,16.27
2023-01-05T10:54:50.182Z,12.63
2023-01-05T10:57:35.953Z,8.73
2023-01-05T11:00:10.336Z,10.98
2023-01-05T11:02:41.543Z,11.75
2023-01-05T11:05:11.981Z,6.60
2023-01-05T11:07:50.881Z,7.18
2023-01-05T11:10:26.086Z,13.13
2023-01-05T11:13:16.603Z,11.43
2023-01-05T11:15:56.441Z,12.95
2023-01-05T11:18:31.288Z,8.40
2023-01-05T11:21:14.025Z,8.20
2023-01-05T11:23:50.394Z,20.75
2023-01-05T11:26:21.446Z,12.95
2023-01-05T11:28:59.196Z,9.20
2023-01-05T11:31:36.983Z,7.70
2023-01-05T11:34:22.195Z,9.43
2023-01-05T11:36:55.900Z,10.40
2023-01-05T11:39:29.983Z,4.68
2023-01-05T11:42:12.616Z,11.35
2023-01-05T11:44:43.988Z,10.68
2023-01-05T11:47:22.273Z,10.90
2023-01-05T11:49:58.675Z,9.85
2023-01-05T11:52:38.281Z,11.38
2023-01-05T11:55:21.682Z,10.07
2023-01-05T11:57:54.232Z,8.73
2023-01-05T12:00:27.355Z,14.77
2023-01-05T12:03:26.714Z,10.65
2023-01-05T12:05:57.385Z,9.23
2023-01-05T12:08:34.682Z,14.80
2023-01-05T12:11:20.124Z,13.90
2023-01-05T12:14:51.946Z,10.65
2023-01-05T12:17:30.272Z,20.05
2023-01-05T12:20:13.942Z,17.33
2023-01-05T12:22:46.969Z,14.40
2023-01-05T12:25:33.006Z,13.27
2023-01-05T12:28:11.271Z,13.68
2023-01-05T12:36:47.813Z,13.07
2023-01-05T12:42:05.800Z,11.88
2023-01-05T12:44:55.008Z,16.70
2023-01-05T12:48:06.009Z,13.68
2023-01-05T12:53:17.736Z,13.45
2023-01-05T12:55:53.673Z,12.25
2023-01-05T12:58:30.127Z,14.43
2023-01-05T13:01:00.088Z,12.82
2023-01-05T13:03:41.215Z,16.10
2023-01-05T13:06:11.323Z,7.30
2023-01-05T13:08:42.407Z,10.18
2023-01-05T13:11:31.564Z,13.68
2023-01-05T13:14:05.353Z,10.80
2023-01-05T13:16:40.415Z,11.80
2023-01-05T13:19:26.623Z,11.40
2023-01-05T13:21:55.107Z,8.00
2023-01-05T13:24:35.424Z,11.88
2023-01-05T13:27:03.644Z,12.50
2023-01-05T13:29:45.167Z,18.45
2023-01-05T13:35:05.101Z,8.75
2023-01-05T13:37:42.938Z,12.50
2023-01-05T13:40:33.272Z,16.27
2023-01-05T13:43:30.273Z,10.73
2023-01-05T13:46:12.315Z,17.38
2023-01-05T13:49:04.153Z,12.13
2023-01-05T13:51:43.231Z,12.00
2023-01-05T13:54:25.657Z,13.27
2023-01-05T13:56:53.339Z,15.25
2023-01-05T13:59:35.844Z,9.68
2023-01-05T14:02:27.375Z,11.10
2023-01-05T14:04:55.203Z,11.05
2023-01-05T14:07:24.366Z,17.00
2023-01-05T14:09:55.728Z,16.98
2023-01-05T14:12:26.837Z,19.60
2023-01-05T14:15:00.728Z,18.65
2023-01-05T14:17:51.770Z,15.63
2023-01-05T14:20:46.906Z,11.93
2023-01-05T14:23:23.844Z,18.17
2023-01-05T14:25:54.059Z,15.02
2023-01-05T14:28:30.571Z,16.42
2023-01-05T14:31:21.690Z,21.73
2023-01-05T14:33:57.189Z,16.17
2023-01-05T14:36:34.794Z,19.33
2023-01-05T14:39:19.772Z,10.32
2023-01-05T14:41:58.716Z,16.13
2023-01-05T14:44:32.064Z,17.50
2023-01-05T14:47:00.581Z,17.83
2023-01-05T14:49:34.248Z,18.45
2023-01-05T14:52:04.465Z,17.73
2023-01-05T14:54:40.984Z,18.15
2023-01-05T14:57:21.923Z,15.20
2023-01-05T14:59:51.937Z,17.73
2023-01-05T15:02:24.715Z,11.75
2023-01-05T15:07:34.197Z,19.85
2023-01-05T15:10:04.684Z,22.98
2023-01-05T15:12:47.182Z,19.30
2023-01-05T15:15:48.702Z,13.93
2023-01-05T15:21:28.212Z,17.63
2023-01-05T15:24:04.958Z,18.55
2023-01-05T15:26:54.086Z,26.17
2023-01-05T15:29:48.313Z,21.35
2023-01-05T15:32:32.614Z,12.15
2023-01-05T15:35:18.100Z,23.30
2023-01-05T15:37:52.372Z,15.55
2023-01-05T15:40:22.869Z,16.88
2023-01-05T15:42:53.507Z,19.35
2023-01-05T15:45:35.577Z,13.65
2023-01-05T15:48:14.284Z,15.63
2023-01-05T15:50:49.727Z,15.45
2023-01-05T15:53:44.103Z,15.13
2023-01-05T15:56:41.265Z,13.55
2023-01-05T15:59:41.840Z,9.60
2023-01-05T16:02:28.119Z,20.90
2023-01-05T16:05:20.391Z,19.00
2023-01-05T16:07:50.830Z,23.67
2023-01-05T16:10:38.200Z,19.77
2023-01-05T16:13:24.342Z,17.13
2023-01-05T16:16:04.883Z,27.80
2023-01-05T16:18:39.874Z,13.63
2023-01-05T16:21:15.879Z,18.30
2023-01-05T16:23:56.725Z,21.30
2023-01-05T16:28:51.668Z,24.05
2023-01-05T16:31:29.518Z,23.08
2023-01-05T16:34:16.949Z,17.45
2023-01-05T16:37:05.105Z,26.65
2023-01-05T16:39:36.965Z,16.50
2023-01-05T16:42:40.871Z,16.92
2023-01-05T16:45:22.718Z,21.90
2023-01-05T16:47:52.466Z,20.92
2023-01-05T16:50:19.923Z,22.03
2023-01-05T16:53:04.029Z,17.98
2023-01-05T16:55:36.860Z,20.25
2023-01-05T16:58:26.025Z,21.30
2023-01-05T17:00:53.476Z,16.80
2023-01-05T17:03:28.584Z,28.38
2023-01-05T17:05:58.617Z,37.85
2023-01-05T17:08:30.699Z,25.95
2023-01-05T17:11:00.517Z,25.10
2023-01-05T17:13:39.885Z,28.37
2023-01-05T17:16:11.137Z,31.60
2023-01-05T17:18:38.489Z,21.25
2023-01-05T17:21:07.734Z,32.08
2023-01-05T17:23:47.294Z,24.95
2023-01-05T17:26:22.382Z,24.05
2023-01-05T17:28:50.201Z,28.40
2023-01-05T17:31:17.488Z,31.70
2023-01-05T17:33:44.775Z,33.60
2023-01-05T17:38:43.218Z,30.65
2023-01-05T17:41:19.976Z,32.63
2023-01-05T17:43:47.867Z,25.80
2023-01-05T17:46:21.027Z,25.48
2023-01-05T17:48:49.350Z,35.05
2023-01-05T17:51:16.801Z,32.53
2023-01-05T17:53:44.088Z,33.72
2023-01-05T17:56:11.631Z,30.58
2023-01-05T17:58:39.340Z,29.08
2023-01-05T18:01:06.930Z,29.00
2023-01-05T18:03:34.199Z,33.50
2023-01-05T18:06:02.086Z,28.05
2023-01-05T18:08:29.779Z,22.83
2023-01-05T18:11:01.508Z,29.13
2023-01-05T18:13:28.778Z,30.00
2023-01-05T18:18:26.965Z,29.80
2023-01-05T18:21:00.751Z,23.50
2023-01-05T18:23:28.554Z,29.38
2023-01-05T18:25:56.165Z,34.90
2023-01-05T18:28:23.460Z,45.92
2023-01-05T18:30:50.945Z,27.30
2023-01-05T18:33:18.238Z,31.15
2023-01-05T18:35:45.519Z,33.65
2023-01-05T18:38:15.379Z,48.70
2023-01-05T18:40:46.966Z,25.15
2023-01-05T18:43:14.343Z,24.77
2023-01-05T18:45:41.669Z,29.35
2023-01-05T18:48:09.692Z,30.05
2023-01-05T18:50:43.192Z,37.35
2023-01-05T18:53:10.696Z,23.90
2023-01-05T18:55:42.192Z,33.30
2023-01-05T18:58:12.422Z,37.33
2023-01-05T19:00:45.236Z,35.22
2023-01-05T19:03:12.997Z,40.13
2023-01-05T19:05:41.958Z,36.78
2023-01-05T19:08:11.657Z,29.50
2023-01-05T19:10:39.139Z,33.25
2023-01-05T19:13:06.947Z,35.80
2023-01-05T19:15:36.670Z,30.52
2023-01-05T19:18:04.690Z,30.33
2023-01-05T19:20:32.124Z,33.45
2023-01-05T19:23:01.232Z,45.60
2023-01-05T19:25:29.897Z,40.85
2023-01-05T19:28:01.214Z,39.83
2023-01-05T19:30:29.453Z,36.28
2023-01-05T19:32:56.769Z,45.63
2023-01-05T19:35:24.031Z,36.95
2023-01-05T19:37:51.276Z,34.30
2023-01-05T19:40:18.568Z,35.78
2023-01-05T19:42:45.805Z,38.33
2023-01-05T19:45:13.167Z,43.92
2023-01-05T19:47:41.558Z,34.08
2023-01-05T19:50:11.148Z,38.60
2023-01-05T19:52:39.272Z,38.28
2023-01-05T19:55:07.771Z,40.20
2023-01-05T19:57:35.421Z,53.15
2023-01-05T20:00:03.571Z,45.90
2023-01-05T20:02:39.408Z,46.15
2023-01-05T20:05:07.327Z,37.50
2023-01-05T20:07:34.833Z,44.00
2023-01-05T20:10:02.151Z,40.22
2023-01-05T20:12:29.642Z,45.78
2023-01-05T20:14:57.193Z,43.40
2023-01-05T20:17:24.522Z,42.88
2023-01-05T20:19:51.788Z,34.65
2023-01-05T20:22:19.173Z,36.33
2023-01-05T20:24:47.021Z,30.75
2023-01-05T20:27:17.022Z,33.33
2023-01-05T20:29:44.478Z,35.85
2023-01-05T20:32:15.424Z,39.65
2023-01-05T20:34:45.276Z,38.85
2023-01-05T20:37:13.116Z,45.83
2023-01-05T20:39:41.511Z,39.03
2023-01-05T20:42:11.050Z,41.90
2023-01-05T20:44:44.176Z,41.25
2023-01-05T20:47:12.529Z,41.13
2023-01-05T20:49:40.966Z,38.17
2023-01-05T20:52:10.450Z,40.65
2023-01-05T20:54:38.364Z,38.15
2023-01-05T20:57:06.505Z,33.13
2023-01-05T20:59:36.100Z,33.67
2023-01-05T21:02:05.744Z,41.10
2023-01-05T21:04:33.798Z,37.47
2023-01-05T21:07:01.319Z,33.20
2023-01-05T21:09:30.312Z,36.10
2023-01-05T21:11:59.228Z,37.65
2023-01-05T21:14:26.813Z,37.28
2023-01-05T21:16:54.962Z,40.38
2023-01-05T21:19:24.145Z,42.50
2023-01-05T21:21:54.665Z,39.78
2023-01-05T21:24:23.394Z,45.05
2023-01-05T21:26:51.089Z,41.28
2023-01-05T21:29:20.685Z,45.70
2023-01-05T21:31:50.380Z,41.83
2023-01-05T21:34:17.843Z,49.78
2023-01-05T21:36:45.977Z,45.05
2023-01-05T21:39:18.338Z,61.58
2023-01-05T21:42:05.286Z,48.00
2023-01-05T21:44:33.428Z,48.47
2023-01-05T21:47:01.533Z,52.38
2023-01-05T21:49:29.162Z,47.45
2023-01-05T21:52:14.923Z,55.78
2023-01-05T21:55:00.693Z,47.65
2023-01-05T21:57:28.076Z,59.90
2023-01-05T21:59:55.437Z,45.75
2023-01-05T22:02:22.769Z,51.33
2023-01-05T22:04:50.190Z,52.38
2023-01-05T22:07:17.473Z,48.40
2023-01-05T22:09:44.794Z,47.17
2023-01-05T22:12:12.131Z,43.65
2023-01-05T22:14:39.425Z,50.08
2023-01-05T22:17:09.020Z,54.47
2023-01-05T22:19:36.659Z,45.33
2023-01-05T22:22:04.604Z,44.70
2023-01-05T22:24:31.936Z,45.28
2023-01-05T22:27:00.765Z,46.78
2023-01-05T22:29:28.171Z,51.22
2023-01-05T22:31:55.612Z,47.03
2023-01-05T22:34:23.077Z,43.00
2023-01-05T22:36:50.752Z,47.92
2023-01-05T22:39:18.220Z,50.33
2023-01-05T22:41:46.634Z,48.60
2023-01-05T22:44:14.053Z,43.70
2023-01-05T22:46:41.883Z,52.90
2023-01-05T22:49:13.670Z,51.70
2023-01-05T22:51:41.335Z,44.40
2023-01-05T22:54:08.909Z,48.42
2023-01-05T22:56:36.502Z,43.50
2023-01-05T22:59:04.901Z,49.22
2023-01-05T23:01:35.359Z,52.40
2023-01-05T23:04:05.026Z,50.67
2023-01-05T23:06:33.543Z,47.67
2023-01-05T23:09:01.807Z,54.90
2023-01-05T23:11:31.806Z,46.17
2023-01-05T23:14:01.616Z,54.72
2023-01-05T23:16:28.987Z,43.72
2023-01-05T23:18:56.641Z,42.60
2023-01-05T23:21:26.202Z,39.42
2023-01-05T23:23:55.437Z,56.38
2023-01-05T23:26:23.659Z,51.53
2023-01-05T23:28:51.176Z,49.50
2023-01-05T23:31:19.398Z,44.10
2023-01-05T23:33:48.450Z,42.58
2023-01-05T23:36:17.861Z,44.90
2023-01-05T23:38:45.623Z,50.22
2023-01-05T23:41:15.053Z,54.80
2023-01-05T23:43:45.307Z,43.13
2023-01-05T23:46:16.580Z,45.67
2023-01-05T23:48:47.881Z,42.13
2023-01-05T23:51:16.996Z,45.03
2023-01-05T23:53:52.683Z,47.85
2023-01-05T23:56:31.417Z,49.30
2023-01-05T23:59:06.861Z,42.95
